createdAt,value
2022-09-10T00:01:34.928Z,3.13
2022-09-10T00:04:04.048Z,3.10
2022-09-10T00:06:35.361Z,3.20
2022-09-10T00:09:05.684Z,3.50
2022-09-10T00:11:35.107Z,4.03
2022-09-10T00:14:05.460Z,3.80
2022-09-10T00:16:34.663Z,3.00
2022-09-10T00:19:03.629Z,3.43
2022-09-10T00:21:32.160Z,3.50
2022-09-10T00:24:02.100Z,4.30
2022-09-10T00:26:35.344Z,3.77
2022-09-10T00:29:03.902Z,3.93
2022-09-10T00:31:33.804Z,3.50
2022-09-10T00:34:03.665Z,3.90
2022-09-10T00:36:36.013Z,4.37
2022-09-10T00:39:07.926Z,4.27
2022-09-10T00:41:39.978Z,4.43
2022-09-10T00:44:35.146Z,4.60
2022-09-10T00:47:05.678Z,4.90
2022-09-10T00:49:39.139Z,5.03
2022-09-10T00:52:08.506Z,4.70
2022-09-10T00:54:38.851Z,4.70
2022-09-10T00:57:12.633Z,4.67
2022-09-10T00:59:42.679Z,4.40
2022-09-10T01:02:12.301Z,4.47
2022-09-10T01:04:40.858Z,5.17
2022-09-10T01:07:11.802Z,5.00
2022-09-10T01:09:41.035Z,4.60
2022-09-10T01:12:23.128Z,4.50
2022-09-10T01:15:11.412Z,4.53
2022-09-10T01:17:52.899Z,4.80
2022-09-10T01:20:51.227Z,4.87
2022-09-10T01:23:48.120Z,4.83
2022-09-10T01:26:28.268Z,4.60
2022-09-10T01:29:03.566Z,5.30
2022-09-10T01:31:41.595Z,4.50
2022-09-10T01:34:20.134Z,4.80
2022-09-10T01:36:53.611Z,5.10
2022-09-10T01:39:25.788Z,4.20
2022-09-10T01:41:55.669Z,5.00
2022-09-10T01:44:44.931Z,5.37
2022-09-10T01:47:27.624Z,4.67
2022-09-10T01:50:09.322Z,5.20
2022-09-10T01:52:47.909Z,4.70
2022-09-10T01:55:30.330Z,6.07
2022-09-10T01:58:07.205Z,4.80
2022-09-10T02:00:51.557Z,5.23
2022-09-10T02:03:25.076Z,5.23
2022-09-10T02:05:56.235Z,4.83
2022-09-10T02:08:31.228Z,5.00
2022-09-10T02:11:04.075Z,5.40
2022-09-10T02:13:36.456Z,4.53
2022-09-10T02:16:25.908Z,4.53
2022-09-10T02:18:54.503Z,5.67
2022-09-10T02:21:24.149Z,5.30
2022-09-10T02:23:56.857Z,5.40
2022-09-10T02:26:27.775Z,5.53
2022-09-10T02:28:56.485Z,5.77
2022-09-10T02:31:26.415Z,5.10
2022-09-10T02:33:55.723Z,5.17
2022-09-10T02:36:27.349Z,5.70
2022-09-10T02:38:57.650Z,6.17
2022-09-10T02:41:27.954Z,5.80
2022-09-10T02:43:56.952Z,6.03
2022-09-10T02:46:26.658Z,6.37
2022-09-10T02:48:56.139Z,5.67
2022-09-10T02:51:26.093Z,6.20
2022-09-10T02:53:55.845Z,6.30
2022-09-10T02:56:24.820Z,5.67
2022-09-10T02:58:53.356Z,6.33
2022-09-10T03:01:24.097Z,6.03
2022-09-10T03:04:03.534Z,7.00
2022-09-10T03:06:32.984Z,6.77
2022-09-10T03:09:02.213Z,6.27
2022-09-10T03:11:31.710Z,7.40
2022-09-10T03:14:00.605Z,7.20
2022-09-10T03:16:36.550Z,6.83
2022-09-10T03:19:09.399Z,7.97
2022-09-10T03:21:41.590Z,7.13
2022-09-10T03:24:15.338Z,7.27
2022-09-10T03:26:44.601Z,7.10
2022-09-10T03:29:14.175Z,7.07
2022-09-10T03:31:45.220Z,6.70
2022-09-10T03:34:15.577Z,7.73
2022-09-10T03:36:47.429Z,7.83
2022-09-10T03:39:18.476Z,7.03
2022-09-10T03:41:47.149Z,7.43
2022-09-10T03:44:17.353Z,8.03
2022-09-10T03:46:48.212Z,8.03
2022-09-10T03:49:21.059Z,8.07
2022-09-10T03:51:50.686Z,7.90
2022-09-10T03:54:19.385Z,7.43
2022-09-10T03:56:48.357Z,7.63
2022-09-10T03:59:17.317Z,7.50
2022-09-10T04:01:47.377Z,7.63
2022-09-10T04:04:16.285Z,7.97
2022-09-10T04:06:46.070Z,8.17
2022-09-10T04:09:16.462Z,8.03
2022-09-10T04:11:44.841Z,9.00
2022-09-10T04:14:13.462Z,9.00
2022-09-10T04:16:43.971Z,8.27
2022-09-10T04:19:15.507Z,9.23
2022-09-10T04:21:45.440Z,9.67
2022-09-10T04:24:14.292Z,9.67
2022-09-10T04:26:43.728Z,9.40
2022-09-10T04:29:13.666Z,8.63
2022-09-10T04:31:42.502Z,8.10
2022-09-10T04:34:14.429Z,9.20
2022-09-10T04:36:43.373Z,9.10
2022-09-10T04:39:14.493Z,8.67
2022-09-10T04:41:43.308Z,8.57
2022-09-10T04:44:11.679Z,8.90
2022-09-10T04:46:41.917Z,8.93
2022-09-10T04:49:12.231Z,8.90
2022-09-10T04:51:40.607Z,9.73
2022-09-10T04:54:09.135Z,10.00
2022-09-10T04:56:40.445Z,9.87
2022-09-10T04:59:10.777Z,10.10
2022-09-10T05:01:39.234Z,9.77
2022-09-10T05:04:07.980Z,10.03
2022-09-10T05:06:38.548Z,10.13
2022-09-10T05:09:11.595Z,9.50
2022-09-10T05:11:43.909Z,10.10
2022-09-10T05:14:13.121Z,10.13
2022-09-10T05:16:41.639Z,10.70
2022-09-10T05:19:17.711Z,10.07
2022-09-10T05:22:00.864Z,9.93
2022-09-10T05:24:29.526Z,9.67
2022-09-10T05:26:59.685Z,10.53
2022-09-10T05:29:28.611Z,9.93
2022-09-10T05:31:56.978Z,10.00
2022-09-10T05:34:26.559Z,10.03
2022-09-10T05:36:55.919Z,10.27
2022-09-10T05:39:24.666Z,10.63
2022-09-10T05:41:53.181Z,10.17
2022-09-10T05:44:22.951Z,10.70
2022-09-10T05:46:52.176Z,11.43
2022-09-10T05:49:22.771Z,11.10
2022-09-10T05:51:52.109Z,11.53
2022-09-10T05:54:20.749Z,12.13
2022-09-10T05:56:49.023Z,11.37
2022-09-10T05:59:17.631Z,11.17
2022-09-10T06:01:52.678Z,11.83
2022-09-10T06:04:24.301Z,11.40
2022-09-10T06:06:52.589Z,12.23
2022-09-10T06:09:21.992Z,12.87
2022-09-10T06:12:06.710Z,11.97
2022-09-10T06:14:35.627Z,12.77
2022-09-10T06:17:05.514Z,13.50
2022-09-10T06:19:34.715Z,12.20
2022-09-10T06:22:06.732Z,12.97
2022-09-10T06:24:39.709Z,13.53
2022-09-10T06:27:09.808Z,12.90
2022-09-10T06:29:38.301Z,13.97
2022-09-10T06:32:10.908Z,12.60
2022-09-10T06:34:39.610Z,12.70
2022-09-10T06:37:09.100Z,12.20
2022-09-10T06:39:39.357Z,13.20
2022-09-10T06:42:08.645Z,13.20
2022-09-10T06:44:55.303Z,12.77
2022-09-10T06:50:52.167Z,13.30
2022-09-10T06:53:23.092Z,13.40
2022-09-10T06:55:52.146Z,14.87
2022-09-10T06:58:22.496Z,13.73
2022-09-10T07:00:53.174Z,14.77
2022-09-10T07:03:24.724Z,14.40
2022-09-10T07:05:55.721Z,15.50
2022-09-10T07:08:28.302Z,15.97
2022-09-10T07:11:01.420Z,14.50
2022-09-10T07:13:31.133Z,14.23
2022-09-10T07:16:01.500Z,13.60
2022-09-10T07:18:36.029Z,13.80
2022-09-10T07:21:09.119Z,13.80
2022-09-10T07:23:45.345Z,14.20
2022-09-10T07:26:16.006Z,14.00
2022-09-10T07:28:52.270Z,14.67
2022-09-10T07:31:23.010Z,14.50
2022-09-10T07:33:53.838Z,15.10
2022-09-10T07:36:23.134Z,14.07
2022-09-10T07:38:54.877Z,14.63
2022-09-10T07:41:24.153Z,15.80
2022-09-10T07:43:55.629Z,15.13
2022-09-10T07:46:28.527Z,15.90
2022-09-10T07:49:01.649Z,16.40
2022-09-10T07:51:32.569Z,17.40
2022-09-10T07:54:02.531Z,17.00
2022-09-10T07:56:44.640Z,17.13
2022-09-10T07:59:15.664Z,17.20
2022-09-10T08:02:00.465Z,17.47
2022-09-10T08:04:37.205Z,17.80
2022-09-10T08:07:09.699Z,18.13
2022-09-10T08:09:40.303Z,18.03
2022-09-10T08:12:11.322Z,17.53
2022-09-10T08:14:39.840Z,17.40
2022-09-10T08:17:09.477Z,18.50
2022-09-10T08:19:44.077Z,16.40
2022-09-10T08:22:13.638Z,18.10
2022-09-10T08:24:51.650Z,18.50
2022-09-10T08:27:20.143Z,19.13
2022-09-10T08:29:50.113Z,18.17
2022-09-10T08:32:18.522Z,18.40
2022-09-10T08:34:52.316Z,18.30
2022-09-10T08:37:20.886Z,17.67
2022-09-10T08:39:49.547Z,19.17
2022-09-10T08:42:24.084Z,19.00
2022-09-10T08:44:57.744Z,18.80
2022-09-10T08:47:35.476Z,18.50
2022-09-10T08:50:17.429Z,18.67
2022-09-10T08:52:51.325Z,17.43
2022-09-10T08:55:29.977Z,19.53
2022-09-10T08:58:02.092Z,19.10
2022-09-10T09:00:34.862Z,18.30
2022-09-10T09:03:14.132Z,17.97
2022-09-10T09:05:50.314Z,19.20
2022-09-10T09:08:25.427Z,18.67
2022-09-10T09:11:05.851Z,19.30
2022-09-10T09:13:45.770Z,18.90
2022-09-10T09:16:37.892Z,20.00
2022-09-10T09:19:18.250Z,19.40
2022-09-10T09:21:53.304Z,20.07
2022-09-10T09:24:29.801Z,19.17
2022-09-10T09:27:03.801Z,19.00
2022-09-10T09:29:39.393Z,17.90
2022-09-10T09:32:09.336Z,18.80
2022-09-10T09:34:43.038Z,19.40
2022-09-10T09:37:19.229Z,19.27
2022-09-10T09:39:54.587Z,18.40
2022-09-10T09:42:30.572Z,18.57
2022-09-10T09:45:08.704Z,18.93
2022-09-10T09:47:37.409Z,20.93
2022-09-10T09:50:06.465Z,21.23
2022-09-10T09:52:38.614Z,20.27
2022-09-10T09:55:15.495Z,19.90
2022-09-10T09:57:44.591Z,19.97
2022-09-10T10:00:36.408Z,20.53
2022-09-10T10:03:13.834Z,21.10
2022-09-10T10:05:42.678Z,21.20
2022-09-10T10:08:30.890Z,20.77
2022-09-10T10:11:00.176Z,20.70
2022-09-10T10:13:38.493Z,21.27
2022-09-10T10:16:18.919Z,20.40
2022-09-10T10:18:47.639Z,21.20
2022-09-10T10:21:22.395Z,20.83
2022-09-10T10:23:52.587Z,20.93
2022-09-10T10:26:32.313Z,20.20
2022-09-10T10:29:06.383Z,19.80
2022-09-10T10:31:39.800Z,19.73
2022-09-10T10:34:29.580Z,19.10
2022-09-10T10:37:08.819Z,20.37
2022-09-10T10:39:58.998Z,20.37
2022-09-10T10:42:32.335Z,21.67
2022-09-10T10:45:15.541Z,20.43
2022-09-10T10:47:49.768Z,20.00
2022-09-10T10:50:29.170Z,21.90
2022-09-10T10:53:15.725Z,20.27
2022-09-10T10:55:55.497Z,20.00
2022-09-10T10:58:53.945Z,20.47
2022-09-10T11:01:25.889Z,21.17
2022-09-10T11:04:01.803Z,19.97
2022-09-10T11:06:38.425Z,20.60
2022-09-10T11:09:13.972Z,19.37
2022-09-10T11:11:53.425Z,18.63
2022-09-10T11:14:28.292Z,19.27
2022-09-10T11:16:59.787Z,19.03
2022-09-10T11:19:35.903Z,18.87
2022-09-10T11:22:11.775Z,18.00
2022-09-10T11:24:44.732Z,17.47
2022-09-10T11:27:18.061Z,18.07
2022-09-10T11:29:54.745Z,18.77
2022-09-10T11:32:32.432Z,17.67
2022-09-10T11:35:08.682Z,16.27
2022-09-10T11:38:04.376Z,17.70
2022-09-10T11:40:40.569Z,17.00
2022-09-10T11:43:14.484Z,15.37
2022-09-10T11:45:52.873Z,16.03
2022-09-10T11:48:29.239Z,14.80
2022-09-10T11:51:02.451Z,14.67
2022-09-10T11:53:31.077Z,13.37
2022-09-10T11:56:42.431Z,13.23
2022-09-10T11:59:30.154Z,11.80
2022-09-10T12:02:16.274Z,11.97
2022-09-10T12:04:51.079Z,11.57
2022-09-10T12:07:35.536Z,12.30
2022-09-10T12:10:14.324Z,13.27
2022-09-10T12:12:45.058Z,13.60
2022-09-10T12:15:20.077Z,15.50
2022-09-10T12:17:53.607Z,14.07
2022-09-10T12:20:29.722Z,14.33
2022-09-10T12:22:58.916Z,15.13
2022-09-10T12:25:34.321Z,15.33
2022-09-10T12:28:08.089Z,15.10
2022-09-10T12:31:01.265Z,15.50
2022-09-10T12:33:58.321Z,14.80
2022-09-10T12:37:15.990Z,15.63
2022-09-10T12:39:45.354Z,14.10
2022-09-10T12:42:33.721Z,15.10
2022-09-10T12:45:02.238Z,15.07
2022-09-10T12:47:56.035Z,15.43
2022-09-10T12:50:32.807Z,16.60
2022-09-10T12:53:34.527Z,16.33
2022-09-10T12:56:16.662Z,17.63
2022-09-10T12:59:02.506Z,17.87
2022-09-10T13:01:41.982Z,17.57
2022-09-10T13:04:25.660Z,17.77
2022-09-10T13:06:59.161Z,16.20
2022-09-10T13:09:32.816Z,14.20
2022-09-10T13:12:05.046Z,13.67
2022-09-10T13:14:38.373Z,14.07
2022-09-10T13:17:07.695Z,14.47
2022-09-10T13:19:52.151Z,14.50
2022-09-10T13:22:33.240Z,14.73
2022-09-10T13:25:04.592Z,14.93
2022-09-10T13:27:38.951Z,15.10
2022-09-10T13:30:19.856Z,15.50
2022-09-10T13:32:53.170Z,15.03
2022-09-10T13:36:10.659Z,14.47
2022-09-10T13:39:14.631Z,15.07
2022-09-10T13:42:16.358Z,15.57
2022-09-10T13:45:02.651Z,15.93
2022-09-10T13:47:37.689Z,15.17
2022-09-10T13:50:14.553Z,14.33
2022-09-10T13:52:47.232Z,14.33
2022-09-10T13:55:20.829Z,13.70
2022-09-10T13:57:53.076Z,13.90
2022-09-10T14:00:24.727Z,13.03
2022-09-10T14:02:54.422Z,11.83
2022-09-10T14:05:34.002Z,9.77
2022-09-10T14:08:07.222Z,9.27
2022-09-10T14:10:39.311Z,8.13
2022-09-10T14:13:09.837Z,8.50
2022-09-10T14:15:40.898Z,8.10
2022-09-10T14:18:13.854Z,8.00
2022-09-10T14:20:42.766Z,6.50
2022-09-10T14:23:16.176Z,7.07
2022-09-10T14:25:46.598Z,7.37
2022-09-10T14:28:28.321Z,9.70
2022-09-10T14:31:20.814Z,9.97
2022-09-10T14:33:49.197Z,10.13
2022-09-10T14:36:22.356Z,10.03
2022-09-10T14:38:57.660Z,10.07
2022-09-10T14:41:28.804Z,10.63
2022-09-10T14:44:29.842Z,10.50
2022-09-10T14:47:00.999Z,10.40
2022-09-10T14:49:31.862Z,11.00
2022-09-10T14:52:01.654Z,12.00
2022-09-10T14:54:32.163Z,10.63
2022-09-10T14:57:03.754Z,11.07
2022-09-10T14:59:36.308Z,11.47
2022-09-10T15:02:15.807Z,11.27
2022-09-10T15:04:44.340Z,11.07
2022-09-10T15:07:13.286Z,12.33
2022-09-10T15:09:42.198Z,13.20
2022-09-10T15:12:16.402Z,14.30
2022-09-10T15:14:46.234Z,14.10
2022-09-10T15:17:15.351Z,14.80
2022-09-10T15:19:43.830Z,16.13
2022-09-10T15:22:21.427Z,15.50
2022-09-10T15:25:08.672Z,16.30
2022-09-10T15:27:38.599Z,16.90
2022-09-10T15:30:09.551Z,18.30
2022-09-10T15:32:37.941Z,18.63
2022-09-10T15:35:07.013Z,17.43
2022-09-10T15:37:35.540Z,15.90
2022-09-10T15:40:04.386Z,17.30
2022-09-10T15:42:32.787Z,16.27
2022-09-10T15:45:01.097Z,15.03
2022-09-10T15:47:33.621Z,14.53
2022-09-10T15:50:01.900Z,14.87
2022-09-10T15:52:30.244Z,14.53
2022-09-10T15:54:58.622Z,13.67
2022-09-10T15:57:26.991Z,13.93
2022-09-10T15:59:55.518Z,14.17
2022-09-10T16:02:25.167Z,13.77
2022-09-10T16:04:55.117Z,13.90
2022-09-10T16:07:23.449Z,15.03
2022-09-10T16:09:51.927Z,14.30
2022-09-10T16:12:20.295Z,14.00
2022-09-10T16:14:48.766Z,13.37
2022-09-10T16:17:17.479Z,12.73
2022-09-10T16:19:45.942Z,11.47
2022-09-10T16:22:20.058Z,12.37
2022-09-10T16:24:49.298Z,12.73
2022-09-10T16:27:18.116Z,12.07
2022-09-10T16:29:48.707Z,11.63
2022-09-10T16:32:17.064Z,11.60
2022-09-10T16:34:45.500Z,11.80
2022-09-10T16:37:17.423Z,11.27
2022-09-10T16:39:45.847Z,11.63
2022-09-10T16:42:14.809Z,12.23
2022-09-10T16:44:43.245Z,12.20
2022-09-10T16:47:11.602Z,12.90
2022-09-10T16:49:39.999Z,12.43
2022-09-10T16:52:09.152Z,13.03
2022-09-10T16:54:40.430Z,12.87
2022-09-10T16:57:09.205Z,12.27
2022-09-10T16:59:37.666Z,13.50
2022-09-10T17:02:08.937Z,12.90
2022-09-10T17:04:38.066Z,14.57
2022-09-10T17:07:06.636Z,13.97
2022-09-10T17:09:35.308Z,13.40
2022-09-10T17:12:05.520Z,15.50
2022-09-10T17:14:33.919Z,15.13
2022-09-10T17:17:02.286Z,14.03
2022-09-10T17:19:30.607Z,14.37
2022-09-10T17:21:59.167Z,15.77
2022-09-10T17:24:28.577Z,15.73
2022-09-10T17:26:57.732Z,15.77
2022-09-10T17:29:27.757Z,15.33
2022-09-10T17:31:57.594Z,16.17
2022-09-10T17:34:27.313Z,15.33
2022-09-10T17:36:56.277Z,16.33
2022-09-10T17:39:28.296Z,16.07
2022-09-10T17:41:57.172Z,15.37
2022-09-10T17:44:30.142Z,14.73
2022-09-10T17:46:58.754Z,14.33
2022-09-10T17:49:27.204Z,14.87
2022-09-10T17:51:55.848Z,14.10
2022-09-10T17:54:24.643Z,15.90
2022-09-10T17:56:53.121Z,18.63
2022-09-10T17:59:22.224Z,15.20
2022-09-10T18:01:52.504Z,18.03
2022-09-10T18:04:22.077Z,16.50
2022-09-10T18:06:52.654Z,17.10
2022-09-10T18:09:22.000Z,19.00
2022-09-10T18:11:50.527Z,18.10
2022-09-10T18:14:21.637Z,19.23
2022-09-10T18:16:52.314Z,17.23
2022-09-10T18:19:20.820Z,18.00
2022-09-10T18:21:51.171Z,15.70
2022-09-10T18:24:22.697Z,16.60
2022-09-10T18:26:53.843Z,16.77
2022-09-10T18:29:23.725Z,17.67
2022-09-10T18:31:56.355Z,16.80
2022-09-10T18:34:27.755Z,16.03
2022-09-10T18:36:58.013Z,13.47
2022-09-10T18:39:28.457Z,15.23
2022-09-10T18:41:57.376Z,17.47
2022-09-10T18:44:28.780Z,18.90
2022-09-10T18:46:58.811Z,19.70
2022-09-10T18:49:27.944Z,18.13
2022-09-10T18:51:57.889Z,16.67
2022-09-10T18:54:28.998Z,14.07
2022-09-10T18:56:58.649Z,13.83
2022-09-10T18:59:27.467Z,16.53
2022-09-10T19:01:57.053Z,17.70
2022-09-10T19:04:29.342Z,17.77
2022-09-10T19:06:59.237Z,16.00
2022-09-10T19:09:29.737Z,18.03
2022-09-10T19:12:00.439Z,14.40
2022-09-10T19:14:30.584Z,15.77
2022-09-10T19:17:00.422Z,15.63
2022-09-10T19:19:31.912Z,14.83
2022-09-10T19:22:04.373Z,16.47
2022-09-10T19:24:53.295Z,16.80
2022-09-10T19:27:21.509Z,15.03
2022-09-10T19:29:50.429Z,16.10
2022-09-10T19:32:20.126Z,17.60
2022-09-10T19:34:52.053Z,17.37
2022-09-10T19:37:21.097Z,14.70
2022-09-10T19:39:49.886Z,17.27
2022-09-10T19:42:18.445Z,18.67
2022-09-10T19:44:48.855Z,17.90
2022-09-10T19:47:19.830Z,18.30
2022-09-10T19:49:48.476Z,17.77
2022-09-10T19:52:19.164Z,18.10
2022-09-10T19:54:48.141Z,18.13
2022-09-10T19:57:16.573Z,17.93
2022-09-10T19:59:44.843Z,17.53
2022-09-10T20:02:13.422Z,18.97
2022-09-10T20:04:41.945Z,18.93
2022-09-10T20:07:10.409Z,17.30
2022-09-10T20:09:40.260Z,20.20
2022-09-10T20:12:10.864Z,18.47
2022-09-10T20:14:39.323Z,19.37
2022-09-10T20:17:09.706Z,19.17
2022-09-10T20:19:38.105Z,19.83
2022-09-10T20:22:06.663Z,17.77
2022-09-10T20:24:35.283Z,19.30
2022-09-10T20:27:05.806Z,18.80
2022-09-10T20:29:34.319Z,18.27
2022-09-10T20:32:03.124Z,19.40
2022-09-10T20:34:32.541Z,18.00
2022-09-10T20:37:01.443Z,17.33
2022-09-10T20:39:31.847Z,18.13
2022-09-10T20:42:00.902Z,19.00
2022-09-10T20:44:32.244Z,19.37
2022-09-10T20:47:00.881Z,16.20
2022-09-10T20:49:29.391Z,17.20
2022-09-10T20:51:59.529Z,18.30
2022-09-10T20:54:27.996Z,16.70
2022-09-10T20:56:56.832Z,18.27
2022-09-10T20:59:27.649Z,18.87
2022-09-10T21:01:58.207Z,19.13
2022-09-10T21:04:27.962Z,18.50
2022-09-10T21:06:56.988Z,17.80
2022-09-10T21:09:25.970Z,18.90
2022-09-10T21:11:54.654Z,17.27
2022-09-10T21:14:26.287Z,17.80
2022-09-10T21:16:55.482Z,18.17
2022-09-10T21:19:26.491Z,18.10
2022-09-10T21:21:54.933Z,18.53
2022-09-10T21:24:23.679Z,18.77
2022-09-10T21:26:53.379Z,18.27
2022-09-10T21:29:23.145Z,19.13
2022-09-10T21:31:54.607Z,18.47
2022-09-10T21:34:24.701Z,17.93
2022-09-10T21:36:53.205Z,20.00
2022-09-10T21:39:22.181Z,19.67
2022-09-10T21:41:52.102Z,20.53
2022-09-10T21:44:22.216Z,20.23
2022-09-10T21:46:51.841Z,20.57
2022-09-10T21:49:21.452Z,20.53
2022-09-10T21:51:52.202Z,18.97
2022-09-10T21:54:22.314Z,20.83
2022-09-10T21:56:51.655Z,21.47
2022-09-10T21:59:21.481Z,20.40
2022-09-10T22:01:50.820Z,21.57
2022-09-10T22:04:22.771Z,21.43
2022-09-10T22:06:54.011Z,23.33
2022-09-10T22:09:22.755Z,18.90
2022-09-10T22:11:54.306Z,21.80
2022-09-10T22:14:24.348Z,20.70
2022-09-10T22:16:53.752Z,22.83
2022-09-10T22:19:24.424Z,22.00
2022-09-10T22:21:56.897Z,19.93
2022-09-10T22:24:26.298Z,21.47
2022-09-10T22:26:54.943Z,22.80
2022-09-10T22:29:23.481Z,21.17
2022-09-10T22:31:51.997Z,23.47
2022-09-10T22:34:20.881Z,21.10
2022-09-10T22:36:49.696Z,22.87
2022-09-10T22:39:21.420Z,23.47
2022-09-10T22:41:50.797Z,21.87
2022-09-10T22:44:20.210Z,22.73
2022-09-10T22:46:49.385Z,23.07
2022-09-10T22:49:18.186Z,23.80
2022-09-10T22:51:46.829Z,21.37
2022-09-10T22:54:17.532Z,22.60
2022-09-10T22:56:50.422Z,22.73
2022-09-10T22:59:18.773Z,25.40
2022-09-10T23:01:48.545Z,27.57
2022-09-10T23:04:17.010Z,25.73
2022-09-10T23:06:45.614Z,27.03
2022-09-10T23:09:16.364Z,26.50
2022-09-10T23:11:45.602Z,25.47
2022-09-10T23:14:19.169Z,21.97
2022-09-10T23:16:49.746Z,18.27
2022-09-10T23:19:19.836Z,17.50
2022-09-10T23:21:50.526Z,22.03
2022-09-10T23:24:20.649Z,24.53
2022-09-10T23:26:49.919Z,18.73
2022-09-10T23:29:23.421Z,21.43
2022-09-10T23:31:54.420Z,17.47
2022-09-10T23:34:23.699Z,16.60
2022-09-10T23:36:53.411Z,17.50
2022-09-10T23:39:23.800Z,19.63
2022-09-10T23:41:54.827Z,17.87
2022-09-10T23:44:24.874Z,18.50
2022-09-10T23:46:53.626Z,20.67
2022-09-10T23:49:22.638Z,28.00
2022-09-10T23:51:51.674Z,26.70
2022-09-10T23:54:20.147Z,29.33
2022-09-10T23:56:48.457Z,29.60
2022-09-10T23:59:16.963Z,24.93
